Time;durP1;ratioP1;P1;durP2;ratioP2;P2;SDS_P1;SDS_P2;PMS_P1;PMS_P2;Temp;Humidity;BMP_temperature;BMP_pressure;BME280_temperature;BME280_humidity;BME280_pressure;Samples;Min_cycle;Max_cycle;Signal;HPM_P1;HPM_P2
2022/05/08 00:02:07;;;;;;;16.35;4.07;;;8.10;99.90;;;;;;5026137;28;20037;-78
2022/05/08 00:04:33;;;;;;;9.70;3.47;;;8.10;99.90;;;;;;5027131;28;20052;-78
2022/05/08 00:06:59;;;;;;;6.90;3.53;;;8.10;99.90;;;;;;5027618;28;20034;-78
2022/05/08 00:09:24;;;;;;;15.32;3.83;;;8.10;99.90;;;;;;5026687;28;20766;-78
2022/05/08 00:11:52;;;;;;;13.52;3.67;;;8.10;99.90;;;;;;5027372;28;20081;-78
2022/05/08 00:14:18;;;;;;;14.38;3.78;;;8.10;99.90;;;;;;5026737;28;20542;-77
2022/05/08 00:16:43;;;;;;;11.65;3.55;;;8.00;99.90;;;;;;5026851;28;20133;-78
2022/05/08 00:19:12;;;;;;;11.80;3.88;;;8.00;99.90;;;;;;5027466;28;20480;-77
2022/05/08 00:21:39;;;;;;;11.18;3.80;;;8.00;99.90;;;;;;5025525;28;20051;-78
2022/05/08 00:24:05;;;;;;;11.95;3.60;;;8.10;99.90;;;;;;5027023;28;20049;-78
2022/05/08 00:26:30;;;;;;;12.43;4.50;;;8.00;99.90;;;;;;5027302;28;20037;-77
2022/05/08 00:28:56;;;;;;;16.25;3.83;;;7.90;99.90;;;;;;5027975;28;20175;-78
2022/05/08 00:31:22;;;;;;;19.48;3.70;;;7.90;99.90;;;;;;5025074;28;20107;-77
2022/05/08 00:33:47;;;;;;;10.80;3.72;;;7.80;99.90;;;;;;5027459;28;20044;-77
2022/05/08 00:36:13;;;;;;;14.60;3.78;;;7.90;99.90;;;;;;5026933;28;20408;-78
2022/05/08 00:38:38;;;;;;;13.68;4.45;;;7.80;99.90;;;;;;5026170;28;20403;-78
2022/05/08 00:41:06;;;;;;;9.95;3.83;;;7.80;99.90;;;;;;5026002;28;20045;-78
2022/05/08 00:43:33;;;;;;;15.40;3.60;;;7.80;99.90;;;;;;5025975;28;20068;-78
2022/05/08 00:46:05;;;;;;;14.50;4.15;;;7.70;99.90;;;;;;5024695;28;20049;-78
2022/05/08 00:48:31;;;;;;;10.03;3.67;;;7.70;99.90;;;;;;5025864;28;20049;-77
2022/05/08 00:50:57;;;;;;;13.52;4.00;;;7.70;99.90;;;;;;5027491;28;20349;-78
2022/05/08 00:53:26;;;;;;;14.27;3.65;;;7.70;99.90;;;;;;5026134;28;20077;-78
2022/05/08 00:55:52;;;;;;;11.60;3.58;;;7.60;99.90;;;;;;5024215;28;20056;-78
2022/05/08 00:58:19;;;;;;;7.82;3.47;;;7.60;99.90;;;;;;5026035;28;20425;-78
2022/05/08 01:00:48;;;;;;;16.80;3.92;;;7.60;99.90;;;;;;5026058;28;22008;-77
2022/05/08 01:03:14;;;;;;;11.32;3.80;;;7.60;99.90;;;;;;5026891;28;20080;-78
2022/05/08 01:05:41;;;;;;;11.45;4.03;;;7.50;99.90;;;;;;5026901;28;20570;-78
2022/05/08 01:08:11;;;;;;;9.93;3.67;;;7.50;99.90;;;;;;5024798;28;20502;-78
2022/05/08 01:10:37;;;;;;;10.18;4.28;;;7.50;99.90;;;;;;5024974;28;20064;-78
2022/05/08 01:13:04;;;;;;;11.30;3.65;;;7.50;99.90;;;;;;5019800;28;20048;-78
2022/05/08 01:15:42;;;;;;;12.38;3.83;;;7.50;99.90;;;;;;5026430;28;20331;-78
2022/05/08 01:18:08;;;;;;;10.25;4.05;;;7.40;99.90;;;;;;5023404;28;20053;-78
2022/05/08 01:20:34;;;;;;;8.48;3.30;;;7.40;99.90;;;;;;5024617;28;20136;-78
2022/05/08 01:23:04;;;;;;;13.68;4.10;;;7.40;99.90;;;;;;5024912;28;20497;-78
2022/05/08 01:25:30;;;;;;;11.38;3.28;;;7.30;99.90;;;;;;5022364;28;20064;-78
2022/05/08 01:27:55;;;;;;;11.75;3.25;;;7.30;99.90;;;;;;5025095;28;20183;-78
2022/05/08 01:30:22;;;;;;;18.02;4.95;;;7.30;99.90;;;;;;5026184;28;20510;-78
2022/05/08 01:32:48;;;;;;;15.48;3.78;;;7.20;99.90;;;;;;5026315;28;20041;-77
2022/05/08 01:35:14;;;;;;;13.82;5.20;;;7.30;99.90;;;;;;5024355;28;20424;-78
2022/05/08 01:37:40;;;;;;;16.42;4.13;;;7.30;99.90;;;;;;5024729;28;20191;-78
2022/05/08 01:40:07;;;;;;;11.98;3.40;;;7.30;99.90;;;;;;5024719;28;20060;-78
2022/05/08 01:42:32;;;;;;;10.73;3.25;;;7.30;99.90;;;;;;5025276;28;20060;-78
2022/05/08 01:44:58;;;;;;;8.50;3.22;;;7.20;99.90;;;;;;5025342;28;20038;-78
2022/05/08 01:50:08;;;;;;;8.02;3.35;;;7.10;99.90;;;;;;5025302;28;20037;-78
2022/05/08 01:52:34;;;;;;;23.25;4.30;;;7.10;99.90;;;;;;5026039;28;20369;-78
2022/05/08 01:55:01;;;;;;;17.75;4.25;;;7.10;99.90;;;;;;5024546;28;20080;-79
2022/05/08 01:57:26;;;;;;;8.63;3.55;;;7.10;99.90;;;;;;5025316;28;20163;-78
2022/05/08 01:59:52;;;;;;;16.50;3.75;;;7.00;99.90;;;;;;5026045;28;20080;-79
2022/05/08 02:02:19;;;;;;;15.13;3.70;;;7.10;99.90;;;;;;5024080;28;20259;-78
2022/05/08 02:04:45;;;;;;;11.10;2.90;;;7.00;99.90;;;;;;5025685;28;20085;-78
2022/05/08 02:07:11;;;;;;;8.23;3.65;;;7.00;99.90;;;;;;5025812;28;20091;-78
2022/05/08 02:09:37;;;;;;;11.60;3.40;;;6.90;99.90;;;;;;5023609;28;20080;-78
2022/05/08 02:12:03;;;;;;;10.45;4.10;;;6.90;99.90;;;;;;5025514;28;20396;-78
2022/05/08 02:14:29;;;;;;;6.78;3.10;;;6.90;99.90;;;;;;5024559;28;20116;-79
2022/05/08 02:16:54;;;;;;;17.25;3.60;;;6.90;99.90;;;;;;5017083;28;20563;-78
2022/05/08 02:19:21;;;;;;;11.13;3.53;;;6.80;99.90;;;;;;5024363;28;20132;-78
2022/05/08 02:21:47;;;;;;;14.27;3.55;;;6.80;99.90;;;;;;5025811;28;20116;-78
2022/05/08 02:24:13;;;;;;;13.85;4.00;;;6.80;99.90;;;;;;5023992;28;20120;-77
2022/05/08 02:26:38;;;;;;;12.27;3.28;;;6.80;99.90;;;;;;5025658;28;20533;-78
2022/05/08 02:29:04;;;;;;;13.45;3.72;;;6.80;99.90;;;;;;5024026;28;20618;-77
2022/05/08 02:31:29;;;;;;;12.88;3.15;;;6.70;99.90;;;;;;5023644;28;20479;-78
2022/05/08 02:33:57;;;;;;;7.35;2.95;;;6.70;99.90;;;;;;5026063;28;20045;-77
2022/05/08 02:36:22;;;;;;;14.27;3.75;;;6.70;99.90;;;;;;5023932;28;20056;-77
2022/05/08 02:38:48;;;;;;;13.70;4.03;;;6.70;99.90;;;;;;5023456;28;20045;-77
2022/05/08 02:41:13;;;;;;;9.15;3.15;;;6.60;99.90;;;;;;5025278;28;20042;-77
2022/05/08 02:43:39;;;;;;;10.50;3.80;;;6.60;99.90;;;;;;5024191;28;20056;-77
2022/05/08 02:46:04;;;;;;;11.18;3.50;;;6.60;99.90;;;;;;5022887;28;20062;-77
2022/05/08 02:48:30;;;;;;;8.75;3.60;;;6.60;99.90;;;;;;5024421;28;20057;-77
2022/05/08 02:50:56;;;;;;;11.68;3.70;;;6.50;99.90;;;;;;5025651;28;20041;-77
2022/05/08 02:53:21;;;;;;;12.30;3.15;;;6.50;99.90;;;;;;5024356;28;20045;-77
2022/05/08 02:58:34;;;;;;;4.53;2.17;;;6.50;99.90;;;;;;5020572;28;20499;-77
2022/05/08 03:01:01;;;;;;;7.82;3.40;;;6.50;99.90;;;;;;5025026;28;20041;-78
2022/05/08 03:03:27;;;;;;;8.48;2.95;;;6.40;99.90;;;;;;5024229;28;20124;-77
2022/05/08 03:05:53;;;;;;;15.60;4.50;;;6.40;99.90;;;;;;5023118;28;20050;-77
2022/05/08 03:08:19;;;;;;;6.40;2.80;;;6.40;99.90;;;;;;5024077;28;20056;-77
2022/05/08 03:13:39;;;;;;;12.13;3.03;;;6.30;99.90;;;;;;5023594;28;20487;-77
2022/05/08 03:16:10;;;;;;;8.63;3.10;;;6.40;99.90;;;;;;5025077;28;20049;-77
2022/05/08 03:18:38;;;;;;;11.25;2.72;;;6.40;99.90;;;;;;5023797;28;20097;-77
2022/05/08 03:21:07;;;;;;;7.53;2.60;;;6.30;99.90;;;;;;5026307;28;20037;-77
2022/05/08 03:23:34;;;;;;;11.25;3.40;;;6.30;99.90;;;;;;5029105;28;20041;-77
2022/05/08 03:26:00;;;;;;;11.07;2.92;;;6.30;99.90;;;;;;5027263;28;20045;-78
2022/05/08 03:28:26;;;;;;;6.50;2.55;;;6.20;99.90;;;;;;5027575;28;20041;-78
2022/05/08 03:30:51;;;;;;;9.98;3.33;;;6.20;99.90;;;;;;5029037;28;20026;-78
2022/05/08 03:33:17;;;;;;;5.05;2.47;;;6.20;99.90;;;;;;5031506;28;20136;-79
2022/05/08 03:35:43;;;;;;;9.48;2.88;;;6.20;99.90;;;;;;5028030;28;20029;-77
2022/05/08 03:38:08;;;;;;;7.97;3.15;;;6.20;99.90;;;;;;5028555;28;20468;-78
2022/05/08 03:40:35;;;;;;;8.05;2.42;;;6.10;99.90;;;;;;5028469;28;20107;-78
2022/05/08 03:43:01;;;;;;;7.43;3.15;;;7.30;99.90;;;;;;5027104;28;20480;-77
2022/05/08 03:45:28;;;;;;;9.90;3.13;;;6.10;99.90;;;;;;5029110;28;20087;-77
2022/05/08 03:47:54;;;;;;;8.63;2.65;;;6.10;99.90;;;;;;5025776;28;20045;-77
2022/05/08 03:50:21;;;;;;;8.20;2.65;;;6.10;99.90;;;;;;5028749;28;20058;-77
2022/05/08 03:52:47;;;;;;;9.50;2.92;;;6.10;99.90;;;;;;5027210;28;20518;-77
2022/05/08 03:55:15;;;;;;;7.35;3.10;;;6.10;99.90;;;;;;5027859;28;20057;-78
2022/05/08 03:57:44;;;;;;;5.57;2.72;;;6.00;99.90;;;;;;5026560;28;20322;-77
2022/05/08 04:00:11;;;;;;;8.23;2.78;;;6.10;99.90;;;;;;5027099;28;20732;-77
2022/05/08 04:02:36;;;;;;;5.78;2.72;;;6.00;99.90;;;;;;5028030;28;20396;-77
2022/05/08 04:05:03;;;;;;;6.70;2.30;;;6.10;99.90;;;;;;5027187;28;20060;-77
2022/05/08 04:07:29;;;;;;;5.50;2.42;;;6.10;99.90;;;;;;5027156;28;20115;-77
2022/05/08 04:09:55;;;;;;;5.30;2.70;;;5.90;99.90;;;;;;5041732;28;20042;-77
2022/05/08 04:12:21;;;;;;;5.85;2.42;;;6.10;99.90;;;;;;5026820;28;20126;-78
2022/05/08 04:14:46;;;;;;;7.57;3.13;;;6.10;99.90;;;;;;5026210;28;20276;-77
2022/05/08 04:17:12;;;;;;;9.40;2.53;;;6.00;99.90;;;;;;5027761;28;20045;-77
2022/05/08 04:19:39;;;;;;;8.70;2.60;;;6.10;99.90;;;;;;5027980;28;20049;-77
2022/05/08 04:24:51;;;;;;;9.90;3.15;;;6.10;99.90;;;;;;5026037;28;20045;-77
2022/05/08 04:27:17;;;;;;;8.48;3.00;;;6.20;99.90;;;;;;5026648;28;20049;-77
2022/05/08 04:29:42;;;;;;;8.27;2.97;;;6.20;99.90;;;;;;5027820;28;20430;-77
2022/05/08 04:32:08;;;;;;;6.85;2.60;;;6.30;99.90;;;;;;5025857;28;20037;-77
2022/05/08 04:34:33;;;;;;;6.88;2.88;;;6.20;99.90;;;;;;5027716;28;20056;-77
2022/05/08 04:36:59;;;;;;;8.63;3.15;;;6.30;99.90;;;;;;5027215;28;20041;-78
2022/05/08 04:39:25;;;;;;;7.55;2.78;;;6.30;99.90;;;;;;5028041;28;20053;-77
2022/05/08 04:41:50;;;;;;;4.55;2.35;;;6.40;99.90;;;;;;5025683;28;20099;-78
2022/05/08 04:44:16;;;;;;;7.72;3.10;;;6.50;99.90;;;;;;5026943;28;20063;-77
2022/05/08 04:46:41;;;;;;;7.50;2.53;;;6.50;99.90;;;;;;5027347;28;20115;-77
2022/05/08 04:49:07;;;;;;;8.55;2.92;;;6.60;99.90;;;;;;5027585;28;20037;-77
2022/05/08 04:51:32;;;;;;;6.40;2.88;;;6.60;99.90;;;;;;5025505;28;20075;-77
2022/05/08 04:53:58;;;;;;;8.93;2.40;;;6.70;99.90;;;;;;5027482;28;20092;-77
2022/05/08 04:56:24;;;;;;;7.75;2.83;;;6.70;99.90;;;;;;5027709;28;20045;-77
2022/05/08 04:58:52;;;;;;;9.27;3.67;;;6.90;99.90;;;;;;5026748;28;20045;-77
2022/05/08 05:01:18;;;;;;;5.28;3.13;;;7.10;99.90;;;;;;5024796;28;20844;-77
2022/05/08 05:03:43;;;;;;;7.75;2.47;;;7.10;99.90;;;;;;5026928;28;20049;-77
2022/05/08 05:06:09;;;;;;;14.20;3.72;;;7.20;99.90;;;;;;5025156;28;20049;-77
2022/05/08 05:08:35;;;;;;;6.93;2.80;;;7.30;99.90;;;;;;5026901;28;20103;-77
2022/05/08 05:11:00;;;;;;;8.38;3.05;;;7.30;99.90;;;;;;5019474;28;20463;-78
2022/05/08 05:13:26;;;;;;;13.93;3.15;;;7.40;99.90;;;;;;5026858;28;20045;-77
2022/05/08 05:15:52;;;;;;;6.55;2.97;;;7.40;99.90;;;;;;5025655;28;20042;-77
2022/05/08 05:18:17;;;;;;;6.65;2.63;;;7.50;99.90;;;;;;5026980;28;20049;-77
2022/05/08 05:20:45;;;;;;;7.70;2.97;;;7.60;99.90;;;;;;5024659;28;20041;-77
2022/05/08 05:23:11;;;;;;;6.25;3.10;;;7.70;99.90;;;;;;5026106;28;20079;-78
2022/05/08 05:25:37;;;;;;;9.82;2.50;;;7.80;99.90;;;;;;5025181;28;20038;-77
2022/05/08 05:28:03;;;;;;;6.95;2.63;;;7.90;99.90;;;;;;5021875;28;20562;-77
2022/05/08 05:30:28;;;;;;;10.85;2.97;;;8.00;99.90;;;;;;5025666;28;20057;-77
2022/05/08 05:32:54;;;;;;;6.75;2.30;;;8.10;99.90;;;;;;5026492;28;20373;-77
2022/05/08 05:35:20;;;;;;;9.55;2.08;;;8.20;99.90;;;;;;5026424;28;20506;-78
2022/05/08 05:37:45;;;;;;;5.13;2.08;;;8.30;99.90;;;;;;5026081;28;20523;-77
2022/05/08 05:40:11;;;;;;;7.82;2.58;;;8.40;99.90;;;;;;5024548;28;20053;-78
2022/05/08 05:42:37;;;;;;;6.53;2.45;;;8.50;99.90;;;;;;5026128;28;20574;-78
2022/05/08 05:45:02;;;;;;;8.00;2.65;;;8.60;99.90;;;;;;5025115;28;20053;-78
2022/05/08 05:50:12;;;;;;;8.50;2.40;;;8.70;99.90;;;;;;5021080;28;20060;-77
2022/05/08 05:52:38;;;;;;;11.85;2.75;;;8.80;99.90;;;;;;5025944;28;20064;-77
2022/05/08 05:55:06;;;;;;;9.30;2.20;;;8.80;99.90;;;;;;5024077;28;20089;-77
2022/05/08 05:57:35;;;;;;;13.30;2.25;;;8.90;99.90;;;;;;5026011;28;20041;-78
2022/05/08 06:00:06;;;;;;;4.88;2.00;;;9.00;99.90;;;;;;5026862;28;20133;-78
2022/05/08 06:02:32;;;;;;;3.65;1.73;;;9.10;99.90;;;;;;5025043;28;20439;-78
2022/05/08 06:04:58;;;;;;;6.38;2.35;;;9.10;99.90;;;;;;5026155;28;20095;-78
2022/05/08 06:07:23;;;;;;;6.15;1.88;;;9.30;99.90;;;;;;5025814;28;20432;-78
2022/05/08 06:09:49;;;;;;;7.45;1.95;;;9.40;99.90;;;;;;5025487;28;20053;-77
2022/05/08 06:12:14;;;;;;;6.40;1.85;;;9.50;99.90;;;;;;5026702;28;20053;-78
2022/05/08 06:14:41;;;;;;;6.85;1.83;;;9.60;99.90;;;;;;5025945;28;20088;-78
2022/05/08 06:17:06;;;;;;;4.32;1.67;;;9.70;99.90;;;;;;5021254;28;20053;-77
2022/05/08 06:19:35;;;;;;;8.60;1.98;;;9.80;99.90;;;;;;5026133;28;20418;-78
2022/05/08 06:22:01;;;;;;;8.18;1.77;;;10.00;99.90;;;;;;5027139;28;20045;-78
2022/05/08 06:24:26;;;;;;;4.15;1.40;;;10.10;99.90;;;;;;5025176;28;20549;-77
2022/05/08 06:26:52;;;;;;;6.82;1.58;;;10.20;99.90;;;;;;5025528;28;20045;-78
2022/05/08 06:29:17;;;;;;;12.10;2.03;;;10.20;99.90;;;;;;5025650;28;20098;-77
2022/05/08 06:31:46;;;;;;;4.78;1.67;;;10.30;99.90;;;;;;5024758;28;20076;-77
2022/05/08 06:34:12;;;;;;;4.53;1.17;;;10.40;99.90;;;;;;5024635;28;20053;-77
2022/05/08 06:36:38;;;;;;;6.93;1.92;;;10.50;99.90;;;;;;5025201;28;20095;-78
2022/05/08 06:39:03;;;;;;;4.93;1.67;;;10.70;99.90;;;;;;5024752;28;20136;-77
2022/05/08 06:41:29;;;;;;;8.43;2.13;;;10.70;99.90;;;;;;5026250;28;20042;-79
2022/05/08 06:43:55;;;;;;;7.28;1.45;;;10.80;99.90;;;;;;5024725;28;20049;-78
2022/05/08 06:46:21;;;;;;;7.38;1.77;;;10.80;99.90;;;;;;5020275;28;20038;-78
2022/05/08 06:48:49;;;;;;;6.55;1.52;;;10.90;99.90;;;;;;5011899;28;20049;-78
2022/05/08 06:51:16;;;;;;;10.70;1.45;;;11.00;99.90;;;;;;5019903;28;20569;-78
2022/05/08 06:53:43;;;;;;;7.20;1.58;;;11.00;99.90;;;;;;5024502;28;20064;-77
2022/05/08 06:56:12;;;;;;;4.22;1.33;;;11.00;99.90;;;;;;5027221;28;20053;-78
2022/05/08 07:01:34;;;;;;;11.25;2.20;;;11.00;99.90;;;;;;5026727;28;20133;-78
2022/05/08 07:01:35;;;;;;;9.30;1.90;;;11.10;99.90;;;;;;5028779;28;20052;-79
2022/05/08 07:04:04;;;;;;;5.75;1.77;;;11.20;99.90;;;;;;5027548;28;20057;-78
2022/05/08 07:06:30;;;;;;;6.47;1.77;;;11.20;99.90;;;;;;5026691;28;20522;-77
2022/05/08 07:08:57;;;;;;;4.07;1.33;;;11.10;99.90;;;;;;5027417;28;20085;-77
2022/05/08 07:11:23;;;;;;;3.70;1.15;;;11.10;99.90;;;;;;5009724;28;20041;-77
2022/05/08 07:13:48;;;;;;;8.05;1.88;;;11.10;99.90;;;;;;5026510;28;20180;-77
2022/05/08 07:16:14;;;;;;;12.57;2.10;;;11.20;99.90;;;;;;5028121;28;20049;-76
2022/05/08 07:18:39;;;;;;;9.10;1.88;;;11.20;99.90;;;;;;5031368;28;20099;-77
2022/05/08 07:21:05;;;;;;;9.52;1.45;;;11.40;99.90;;;;;;5047107;28;20041;-70
2022/05/08 07:23:32;;;;;;;3.85;1.67;;;11.60;99.90;;;;;;5047100;28;20052;-73
2022/05/08 07:25:58;;;;;;;11.30;1.90;;;11.70;99.90;;;;;;5031022;28;20049;-72
2022/05/08 07:28:24;;;;;;;7.10;2.05;;;11.90;99.90;;;;;;5022279;28;20396;-76
2022/05/08 07:30:50;;;;;;;8.63;1.75;;;12.00;99.90;;;;;;5027587;28;20049;-77
2022/05/08 07:33:16;;;;;;;6.72;1.60;;;12.20;99.90;;;;;;5027078;28;20041;-76
2022/05/08 07:38:30;;;;;;;16.38;1.83;;;12.40;99.90;;;;;;5011576;28;20053;-75
2022/05/08 07:40:56;;;;;;;8.45;1.55;;;12.40;99.90;;;;;;5029082;28;20107;-76
2022/05/08 07:43:22;;;;;;;5.85;1.58;;;12.50;99.90;;;;;;5027167;28;20472;-76
2022/05/08 07:45:48;;;;;;;4.65;1.45;;;12.40;99.90;;;;;;5025630;28;20117;-78
2022/05/08 07:48:16;;;;;;;8.75;1.52;;;12.60;99.90;;;;;;5025148;28;20088;-78
2022/05/08 07:50:42;;;;;;;7.90;2.17;;;12.60;99.90;;;;;;5028721;28;20037;-78
2022/05/08 07:53:08;;;;;;;7.32;2.50;;;12.50;99.90;;;;;;4991928;28;1029215;-71
2022/05/08 07:55:33;;;;;;;13.48;2.25;;;12.60;99.90;;;;;;5027716;28;20045;-79
2022/05/08 07:57:59;;;;;;;6.60;1.98;;;12.50;99.90;;;;;;5027033;28;20099;-79
2022/05/08 08:00:25;;;;;;;7.75;1.77;;;12.60;99.90;;;;;;5027776;28;20111;-80
2022/05/08 08:02:50;;;;;;;6.97;1.92;;;12.70;99.90;;;;;;5030181;28;20045;-79
2022/05/08 08:05:16;;;;;;;6.72;1.98;;;12.70;99.90;;;;;;5026922;28;20549;-79
2022/05/08 08:07:41;;;;;;;8.45;2.15;;;12.80;99.90;;;;;;5026436;28;20378;-79
2022/05/08 08:10:07;;;;;;;7.88;1.67;;;12.80;99.90;;;;;;5027453;28;20415;-80
2022/05/08 08:12:33;;;;;;;7.63;1.70;;;12.90;99.90;;;;;;5031505;28;20037;-78
2022/05/08 08:14:59;;;;;;;10.65;2.60;;;12.90;99.90;;;;;;5030311;28;20103;-79
2022/05/08 08:17:26;;;;;;;7.68;1.98;;;12.90;99.90;;;;;;5022521;28;20629;-76
2022/05/08 08:19:52;;;;;;;9.18;1.95;;;12.80;99.90;;;;;;5022163;28;20052;-76
2022/05/08 08:22:17;;;;;;;5.55;1.65;;;12.80;99.90;;;;;;5019684;28;20435;-77
2022/05/08 08:24:43;;;;;;;6.07;1.50;;;12.90;99.90;;;;;;5020102;28;20092;-77
2022/05/08 08:27:11;;;;;;;4.90;1.80;;;12.90;99.90;;;;;;5035134;28;20049;-77
2022/05/08 08:29:37;;;;;;;6.38;1.50;;;12.80;99.90;;;;;;5031745;28;20120;-77
2022/05/08 08:32:03;;;;;;;7.25;1.88;;;13.00;99.90;;;;;;5037328;28;20464;-75
2022/05/08 08:34:28;;;;;;;11.75;1.80;;;13.00;99.90;;;;;;5016276;28;20481;-76
2022/05/08 08:36:54;;;;;;;7.00;1.75;;;13.00;99.90;;;;;;5019426;28;20526;-77
2022/05/08 08:39:20;;;;;;;6.80;2.22;;;13.00;99.90;;;;;;5008609;28;20586;-77
2022/05/08 08:42:20;;;;;;;8.52;2.00;;;13.00;99.90;;;;;;5016331;28;20458;-77
2022/05/08 08:47:43;;;;;;;7.28;2.00;;;13.00;99.90;;;;;;5022514;28;20698;-76
2022/05/08 08:50:09;;;;;;;8.70;2.05;;;13.00;99.90;;;;;;5023918;28;20045;-76
2022/05/08 08:52:36;;;;;;;7.97;1.92;;;13.10;99.90;;;;;;5025030;28;20633;-78
2022/05/08 08:55:01;;;;;;;10.13;2.05;;;13.10;99.90;;;;;;5023664;28;20048;-76
2022/05/08 08:57:27;;;;;;;4.25;1.85;;;13.10;99.90;;;;;;5027564;28;20049;-76
2022/05/08 08:59:53;;;;;;;5.30;1.27;;;13.10;99.90;;;;;;5025647;28;20515;-76
2022/05/08 09:02:20;;;;;;;6.75;1.73;;;13.30;99.90;;;;;;5021982;28;20388;-78
2022/05/08 09:04:49;;;;;;;7.90;2.15;;;13.40;99.90;;;;;;5022867;28;20049;-76
2022/05/08 09:07:33;;;;;;;6.97;1.83;;;13.60;99.90;;;;;;5023194;28;20061;-80
2022/05/08 09:10:35;;;;;;;8.63;2.53;;;13.60;99.90;;;;;;5023498;28;20095;-75
2022/05/08 09:13:08;;;;;;;9.95;1.85;;;13.60;99.90;;;;;;5019971;28;20123;-78
2022/05/08 09:15:35;;;;;;;6.40;1.60;;;13.60;99.90;;;;;;5023338;28;20045;-79
2022/05/08 09:18:06;;;;;;;4.80;1.85;;;13.50;99.90;;;;;;5020827;28;20115;-75
2022/05/08 09:20:39;;;;;;;9.80;1.90;;;13.40;99.90;;;;;;5020656;28;20045;-80
2022/05/08 09:23:14;;;;;;;10.52;1.67;;;13.30;99.90;;;;;;5018686;28;20362;-80
2022/05/08 09:25:50;;;;;;;6.97;2.03;;;13.40;99.90;;;;;;5018414;28;20632;-79
2022/05/08 09:28:25;;;;;;;4.75;1.67;;;13.50;99.90;;;;;;5022937;28;20049;-78
2022/05/08 09:31:02;;;;;;;9.02;1.65;;;13.50;99.90;;;;;;5024535;28;20396;-80
2022/05/08 09:33:36;;;;;;;6.50;2.03;;;13.50;99.90;;;;;;5022573;28;20120;-81
2022/05/08 09:36:07;;;;;;;8.00;1.77;;;13.60;99.90;;;;;;5017341;28;20034;-81
2022/05/08 09:38:53;;;;;;;7.63;2.28;;;13.60;99.90;;;;;;5031289;28;20125;-81
2022/05/08 09:41:29;;;;;;;9.60;1.80;;;13.70;99.90;;;;;;5020372;28;20124;-80
2022/05/08 09:44:09;;;;;;;10.10;2.47;;;13.80;99.90;;;;;;5030644;28;20054;-80
2022/05/08 09:46:36;;;;;;;6.95;1.90;;;13.80;99.90;;;;;;5017969;28;20529;-79
2022/05/08 09:49:02;;;;;;;10.32;2.75;;;13.80;99.90;;;;;;5021454;28;20037;-78
2022/05/08 09:51:32;;;;;;;4.47;1.60;;;13.70;99.90;;;;;;5019944;28;20045;-79
2022/05/08 09:53:58;;;;;;;6.03;2.17;;;13.70;99.90;;;;;;5019514;28;20151;-78
2022/05/08 09:56:25;;;;;;;13.98;2.65;;;13.70;99.90;;;;;;5019494;28;20427;-80
2022/05/08 09:58:50;;;;;;;7.13;1.98;;;13.80;99.90;;;;;;5020607;28;20060;-79
2022/05/08 10:01:16;;;;;;;8.88;1.98;;;13.80;99.20;;;;;;5018674;28;20037;-77
2022/05/08 10:03:46;;;;;;;5.05;1.92;;;13.70;97.50;;;;;;5019331;28;20047;-81
2022/05/08 10:06:14;;;;;;;5.93;1.98;;;13.70;96.60;;;;;;5020756;28;20500;-79
2022/05/08 10:08:41;;;;;;;9.55;2.25;;;13.80;97.90;;;;;;5024879;28;20476;-81
2022/05/08 10:13:58;;;;;;;7.75;2.30;;;14.10;99.90;;;;;;5020091;28;20049;-81
2022/05/08 10:16:44;;;;;;;7.20;1.77;;;14.30;99.90;;;;;;5017854;28;20075;-79
2022/05/08 10:19:18;;;;;;;7.40;2.22;;;14.20;99.00;;;;;;5020173;28;20057;-80
2022/05/08 10:21:55;;;;;;;8.50;2.35;;;14.00;99.20;;;;;;5017771;28;20053;-81
2022/05/08 10:24:32;;;;;;;8.18;2.15;;;14.00;99.60;;;;;;5018824;28;20049;-79
2022/05/08 10:27:30;;;;;;;6.40;1.60;;;14.10;99.90;;;;;;5016016;28;20143;-75
2022/05/08 10:29:56;;;;;;;7.93;1.92;;;14.20;99.90;;;;;;5016177;28;20056;-73
2022/05/08 10:32:31;;;;;;;14.52;2.40;;;14.30;99.80;;;;;;5018199;28;20483;-74
2022/05/08 10:35:20;;;;;;;10.18;1.98;;;14.30;99.90;;;;;;5018412;28;21596;-77
2022/05/08 10:37:51;;;;;;;6.07;1.85;;;14.30;99.90;;;;;;5035612;28;20516;-74
2022/05/08 10:40:23;;;;;;;10.20;2.50;;;14.90;99.90;;;;;;5018678;28;20045;-78
2022/05/08 10:42:49;;;;;;;9.77;1.92;;;14.40;99.70;;;;;;5017041;28;20045;-77
2022/05/08 10:45:33;;;;;;;7.10;1.73;;;14.40;98.60;;;;;;5018920;28;20132;-76
2022/05/08 10:48:10;;;;;;;11.57;2.17;;;14.40;98.20;;;;;;5020026;28;20053;-77
2022/05/08 10:50:38;;;;;;;11.43;2.22;;;14.40;98.80;;;;;;5018659;28;20045;-78
2022/05/08 10:53:05;;;;;;;5.47;1.90;;;14.40;97.60;;;;;;5019656;28;20037;-78
2022/05/08 10:55:34;;;;;;;9.50;2.42;;;14.40;96.50;;;;;;5020452;28;20045;-78
2022/05/08 10:58:00;;;;;;;10.98;2.13;;;14.30;96.30;;;;;;5019676;28;20053;-77
2022/05/08 11:00:28;;;;;;;11.88;2.88;;;14.30;97.10;;;;;;5026013;28;20052;-79
2022/05/08 11:02:59;;;;;;;6.35;1.90;;;14.40;99.90;;;;;;5025221;28;20040;-80
2022/05/08 11:05:37;;;;;;;6.47;2.15;;;14.60;98.90;;;;;;5018279;28;20056;-77
2022/05/08 11:08:05;;;;;;;5.32;2.15;;;14.70;98.00;;;;;;5019709;28;20056;-79
2022/05/08 11:10:33;;;;;;;8.32;2.35;;;14.70;96.20;;;;;;5020251;28;20052;-80
2022/05/08 11:13:04;;;;;;;4.80;1.90;;;14.70;95.60;;;;;;5017273;28;20069;-77
2022/05/08 11:15:31;;;;;;;6.00;2.13;;;14.70;94.20;;;;;;5020199;28;20049;-74
2022/05/08 11:18:17;;;;;;;8.20;2.17;;;14.80;95.70;;;;;;5019185;28;20080;-77
2022/05/08 11:20:48;;;;;;;3.80;1.75;;;14.80;94.90;;;;;;5019656;28;20096;-80
2022/05/08 11:23:15;;;;;;;7.00;1.70;;;14.80;93.00;;;;;;5017703;28;20476;-80
2022/05/08 11:25:47;;;;;;;9.60;2.20;;;14.80;94.10;;;;;;5019290;28;20494;-82
2022/05/08 11:28:14;;;;;;;8.60;2.15;;;14.80;92.90;;;;;;5016725;28;20077;-80
2022/05/08 11:30:40;;;;;;;6.72;1.85;;;14.80;93.70;;;;;;5016184;28;20526;-81
2022/05/08 11:36:04;;;;;;;9.23;1.85;;;15.00;91.60;;;;;;5019749;28;20050;-80
2022/05/08 11:38:48;;;;;;;7.47;2.28;;;14.90;91.70;;;;;;5020191;28;20057;-80
2022/05/08 11:41:18;;;;;;;7.25;2.42;;;15.00;93.10;;;;;;5017716;28;20045;-79
2022/05/08 11:43:54;;;;;;;5.93;1.88;;;15.00;93.10;;;;;;5022678;28;20058;-80
2022/05/08 11:46:36;;;;;;;9.48;2.00;;;15.10;92.10;;;;;;5021216;28;20065;-78
2022/05/08 11:49:11;;;;;;;7.43;2.35;;;15.00;89.30;;;;;;5022405;28;20049;-78
2022/05/08 11:51:42;;;;;;;6.55;2.22;;;15.00;90.00;;;;;;5020733;28;20482;-78
2022/05/08 11:54:30;;;;;;;6.50;1.88;;;15.10;90.30;;;;;;5021396;28;20060;-73
2022/05/08 11:57:14;;;;;;;6.78;1.70;;;15.20;87.90;;;;;;5021757;28;20053;-74
2022/05/08 11:59:41;;;;;;;6.63;2.08;;;15.30;90.40;;;;;;5024222;28;20080;-72
2022/05/08 12:02:08;;;;;;;12.07;2.08;;;15.40;89.70;;;;;;5029780;28;20052;-77
2022/05/08 12:04:34;;;;;;;6.15;1.77;;;15.30;87.20;;;;;;5028304;28;20049;-79
2022/05/08 12:07:12;;;;;;;13.43;2.78;;;15.30;89.20;;;;;;5026476;28;20506;-78
2022/05/08 12:09:44;;;;;;;5.68;1.73;;;15.40;88.40;;;;;;5026995;28;20050;-76
2022/05/08 12:12:33;;;;;;;8.52;2.60;;;15.40;87.20;;;;;;5028128;28;20091;-77
2022/05/08 12:15:04;;;;;;;9.43;2.28;;;15.70;88.80;;;;;;5025912;28;20053;-77
2022/05/08 12:17:50;;;;;;;8.57;2.63;;;15.50;88.00;;;;;;5026967;28;20045;-77
2022/05/08 12:20:17;;;;;;;7.50;2.00;;;15.60;87.70;;;;;;5026546;28;20084;-78
2022/05/08 12:22:44;;;;;;;9.27;2.47;;;15.60;88.70;;;;;;5033735;28;20051;-78
2022/05/08 12:25:11;;;;;;;7.75;1.85;;;15.70;86.90;;;;;;5033287;28;20144;-80
2022/05/08 12:27:37;;;;;;;7.68;2.20;;;15.60;85.00;;;;;;5030421;28;20056;-80
2022/05/08 12:30:06;;;;;;;8.48;2.22;;;15.60;86.50;;;;;;5018717;28;20053;-82
2022/05/08 12:32:34;;;;;;;11.60;2.00;;;15.60;87.10;;;;;;5022336;28;20096;-82
2022/05/08 12:35:00;;;;;;;10.23;2.65;;;15.60;86.30;;;;;;5012473;28;20682;-80
2022/05/08 12:37:26;;;;;;;5.78;2.33;;;15.60;89.00;;;;;;5008411;28;20050;-80
2022/05/08 12:39:51;;;;;;;7.40;1.80;;;15.60;87.50;;;;;;5020747;28;20049;-80
2022/05/08 12:42:17;;;;;;;5.03;1.58;;;15.60;84.00;;;;;;5025644;28;20049;-79
2022/05/08 12:44:45;;;;;;;7.93;1.98;;;15.50;79.40;;;;;;5025886;28;20053;-80
2022/05/08 12:47:13;;;;;;;11.60;2.40;;;15.30;80.60;;;;;;5027048;28;20038;-79
2022/05/08 12:49:40;;;;;;;7.75;2.00;;;15.20;81.70;;;;;;5026066;28;20045;-80
2022/05/08 12:52:07;;;;;;;12.38;2.42;;;15.30;82.80;;;;;;5025613;28;20064;-80
2022/05/08 12:54:33;;;;;;;8.25;2.05;;;15.40;84.80;;;;;;5026478;28;20068;-80
2022/05/08 12:56:59;;;;;;;4.40;1.67;;;15.60;85.80;;;;;;5026567;28;20053;-81
2022/05/08 12:59:44;;;;;;;7.68;1.90;;;15.70;85.10;;;;;;5027447;28;20049;-79
2022/05/08 13:02:13;;;;;;;8.57;2.33;;;15.80;86.30;;;;;;5026084;28;20069;-79
2022/05/08 13:04:40;;;;;;;7.72;1.85;;;15.90;81.90;;;;;;5026717;28;20412;-79
2022/05/08 13:07:06;;;;;;;8.38;2.03;;;15.80;80.80;;;;;;5027175;28;20053;-79
2022/05/08 13:09:31;;;;;;;14.70;2.70;;;15.90;83.30;;;;;;5027650;28;20053;-79
2022/05/08 13:11:57;;;;;;;11.82;1.95;;;16.00;83.60;;;;;;5014347;28;20604;-78
2022/05/08 13:14:26;;;;;;;7.97;2.25;;;15.90;83.70;;;;;;5014159;28;20050;-80
2022/05/08 13:16:51;;;;;;;6.53;1.85;;;16.00;84.90;;;;;;5021302;28;20060;-78
2022/05/08 13:19:18;;;;;;;13.27;3.13;;;16.00;84.50;;;;;;5022931;28;20056;-78